createdAt,value
2019-05-01T00:00:15.809Z,50.38
2019-05-01T00:02:59.817Z,49.27
2019-05-01T00:05:37.606Z,51.83
2019-05-01T00:08:13.376Z,52.93
2019-05-01T00:10:47.738Z,48.95
2019-05-01T00:13:24.631Z,47.70
2019-05-01T00:15:59.059Z,51.83
2019-05-01T00:18:36.705Z,46.35
2019-05-01T00:21:15.279Z,48.68
2019-05-01T00:23:52.542Z,49.63
2019-05-01T00:26:27.402Z,49.38
2019-05-01T00:29:02.026Z,50.98
2019-05-01T00:31:39.855Z,54.00
2019-05-01T00:34:15.437Z,52.88
2019-05-01T00:36:49.336Z,50.15
2019-05-01T00:39:30.129Z,52.17
2019-05-01T00:42:02.399Z,50.80
2019-05-01T00:44:37.003Z,50.60
2019-05-01T00:47:11.512Z,52.85
2019-05-01T00:49:49.178Z,53.48
2019-05-01T00:52:22.894Z,54.08
2019-05-01T00:54:59.144Z,51.15
2019-05-01T00:57:46.652Z,51.65
2019-05-01T01:00:43.307Z,54.53
2019-05-01T01:03:16.807Z,55.12
2019-05-01T01:05:51.640Z,53.73
2019-05-01T01:08:26.117Z,51.83
2019-05-01T01:11:01.604Z,49.75
2019-05-01T01:13:36.281Z,51.28
2019-05-01T01:16:10.481Z,55.48
2019-05-01T01:18:45.522Z,59.38
2019-05-01T01:21:22.932Z,55.05
2019-05-01T01:23:59.413Z,53.87
2019-05-01T01:26:35.621Z,55.73
2019-05-01T01:29:10.291Z,53.95
2019-05-01T01:31:48.437Z,50.38
2019-05-01T01:34:24.469Z,49.85
2019-05-01T01:37:03.963Z,46.28
2019-05-01T01:39:42.972Z,49.08
2019-05-01T01:42:19.075Z,44.53
2019-05-01T01:45:01.337Z,46.95
2019-05-01T01:47:37.226Z,47.43
2019-05-01T01:50:12.723Z,48.48
2019-05-01T01:52:50.156Z,47.45
2019-05-01T01:55:24.621Z,53.78
2019-05-01T01:58:07.469Z,53.15
2019-05-01T02:01:10.336Z,49.85
2019-05-01T02:04:04.233Z,46.80
2019-05-01T02:06:40.003Z,50.05
2019-05-01T02:09:18.756Z,49.30
2019-05-01T02:11:53.293Z,48.60
2019-05-01T02:14:30.687Z,47.45
2019-05-01T02:17:07.577Z,45.90
2019-05-01T02:19:43.439Z,51.90
2019-05-01T02:22:20.250Z,52.38
2019-05-01T02:24:54.902Z,56.05
2019-05-01T02:27:30.535Z,52.83
2019-05-01T02:30:09.130Z,59.83
2019-05-01T02:32:44.344Z,50.33
2019-05-01T02:35:20.621Z,47.00
2019-05-01T02:37:56.631Z,50.28
2019-05-01T02:40:50.306Z,54.53
2019-05-01T02:43:28.342Z,62.27
2019-05-01T02:46:09.107Z,48.30
2019-05-01T02:48:46.752Z,45.43
2019-05-01T02:51:22.381Z,45.35
2019-05-01T02:54:01.994Z,50.88
2019-05-01T02:56:41.041Z,42.30
2019-05-01T02:59:16.569Z,49.88
2019-05-01T03:01:55.506Z,48.23
2019-05-01T03:04:30.746Z,51.68
2019-05-01T03:07:06.497Z,42.65
2019-05-01T03:09:46.315Z,50.65
2019-05-01T03:12:26.808Z,43.40
2019-05-01T03:15:00.142Z,43.13
2019-05-01T03:17:51.302Z,45.40
2019-05-01T03:20:43.609Z,43.65
2019-05-01T03:23:26.421Z,39.63
2019-05-01T03:26:04.224Z,46.90
2019-05-01T03:28:36.985Z,43.40
2019-05-01T03:31:13.091Z,45.35
2019-05-01T03:33:47.650Z,49.65
2019-05-01T03:36:23.821Z,41.45
2019-05-01T03:39:01.462Z,52.23
2019-05-01T03:41:36.177Z,47.95
2019-05-01T03:44:12.032Z,50.58
2019-05-01T03:46:46.620Z,61.35
2019-05-01T03:49:22.237Z,40.65
2019-05-01T03:51:57.206Z,41.30
2019-05-01T03:54:33.185Z,44.23
2019-05-01T03:57:12.711Z,42.08
2019-05-01T03:59:49.242Z,40.45
2019-05-01T04:02:33.483Z,44.38
2019-05-01T04:05:00.924Z,47.65
2019-05-01T04:07:36.503Z,43.70
2019-05-01T04:10:11.386Z,40.80
2019-05-01T04:12:48.839Z,39.85
2019-05-01T04:15:22.852Z,43.50
2019-05-01T04:17:59.879Z,40.75
2019-05-01T04:20:34.101Z,44.48
2019-05-01T04:23:14.525Z,45.92
2019-05-01T04:37:42.835Z,46.92
2019-05-01T04:46:32.256Z,36.73
2019-05-01T04:49:05.878Z,46.15
2019-05-01T04:54:35.745Z,37.10
2019-05-01T04:57:09.110Z,42.03
2019-05-01T05:00:30.915Z,43.87
2019-05-01T05:02:38.225Z,38.42
2019-05-01T05:11:45.339Z,43.05
2019-05-01T05:20:46.283Z,34.83
2019-05-01T05:23:48.135Z,40.05
2019-05-01T05:29:34.222Z,32.75
2019-05-01T05:38:31.240Z,34.92
2019-05-01T05:41:10.093Z,36.55
2019-05-01T05:41:56.228Z,37.58
2019-05-01T05:47:25.419Z,33.78
2019-05-01T05:50:19.674Z,42.53
2019-05-01T05:53:15.313Z,32.65
2019-05-01T05:55:56.879Z,37.65
2019-05-01T06:02:18.114Z,44.67
2019-05-01T06:08:18.928Z,38.85
2019-05-01T06:17:43.937Z,34.27
2019-05-01T06:29:58.009Z,35.15
2019-05-01T06:32:33.451Z,35.92
2019-05-01T06:35:27.782Z,32.98
2019-05-01T06:38:50.258Z,32.63
2019-05-01T06:44:43.911Z,34.70
2019-05-01T06:47:26.006Z,36.30
2019-05-01T06:50:21.969Z,31.73
2019-05-01T06:56:11.241Z,33.88
2019-05-01T07:01:53.123Z,31.30
2019-05-01T07:04:51.212Z,35.17
2019-05-01T07:08:00.046Z,29.42
2019-05-01T07:10:30.757Z,34.48
2019-05-01T07:13:16.414Z,35.48
2019-05-01T07:15:48.404Z,33.20
2019-05-01T07:21:37.226Z,34.18
2019-05-01T07:27:37.960Z,53.58
2019-05-01T07:42:48.134Z,29.87
2019-05-01T07:45:46.227Z,30.88
2019-05-01T07:48:41.747Z,29.30
2019-05-01T07:51:50.072Z,31.85
2019-05-01T07:57:23.156Z,36.13
2019-05-01T08:00:43.298Z,39.08
2019-05-01T08:09:15.114Z,29.75
2019-05-01T08:11:55.231Z,31.67
2019-05-01T08:14:31.298Z,33.18
2019-05-01T08:17:25.863Z,33.33
2019-05-01T08:20:30.272Z,31.35
2019-05-01T08:23:16.144Z,31.07
2019-05-01T08:26:08.663Z,28.87
2019-05-01T08:29:06.902Z,39.50
2019-05-01T08:44:24.794Z,27.87
2019-05-01T08:57:38.987Z,30.05
2019-05-01T08:59:49.621Z,33.15
2019-05-01T09:05:57.472Z,28.07
2019-05-01T09:08:48.471Z,25.37
2019-05-01T09:11:44.497Z,33.35
2019-05-01T09:17:35.499Z,31.62
2019-05-01T09:20:50.183Z,27.60
2019-05-01T09:26:39.400Z,32.88
2019-05-01T09:29:39.079Z,33.23
2019-05-01T09:32:26.027Z,29.63
2019-05-01T09:34:58.714Z,32.63
2019-05-01T09:37:44.344Z,34.98
2019-05-01T09:41:13.088Z,32.78
2019-05-01T09:52:27.184Z,33.73
2019-05-01T09:58:44.026Z,36.85
2019-05-01T10:01:06.375Z,39.92
2019-05-01T10:03:54.525Z,39.45
2019-05-01T10:06:47.615Z,41.70
2019-05-01T10:10:12.082Z,49.63
2019-05-01T10:15:31.151Z,41.80
2019-05-01T10:18:30.622Z,38.45
2019-05-01T10:24:15.229Z,40.00
2019-05-01T10:30:13.346Z,52.88
2019-05-01T13:05:44.810Z,54.50
2019-05-01T13:14:16.508Z,51.02
2019-05-01T13:26:31.104Z,49.27
2019-05-01T13:32:44.444Z,51.23
2019-05-01T13:37:54.747Z,50.33
2019-05-01T13:56:31.269Z,50.23
2019-05-01T13:59:30.879Z,51.05
2019-05-01T14:02:12.549Z,49.60
2019-05-01T14:15:57.605Z,48.05
2019-05-01T14:18:29.720Z,44.63
2019-05-01T14:33:30.914Z,45.28
2019-05-01T14:36:07.049Z,42.38
2019-05-01T14:39:45.637Z,45.35
2019-05-01T14:41:48.033Z,46.77
2019-05-01T14:47:52.748Z,42.05
2019-05-01T14:50:36.102Z,41.77
2019-05-01T14:53:13.511Z,48.23
2019-05-01T14:56:11.669Z,44.60
2019-05-01T15:08:34.654Z,43.60
2019-05-01T15:14:42.939Z,42.60
2019-05-01T15:17:42.662Z,38.70
2019-05-01T15:23:15.282Z,38.73
2019-05-01T15:26:09.783Z,44.42
2019-05-01T15:35:40.547Z,38.78
2019-05-01T15:38:45.131Z,41.13
2019-05-01T15:41:54.249Z,36.98
2019-05-01T15:54:02.527Z,42.35
2019-05-01T15:56:36.333Z,37.93
2019-05-01T16:02:21.741Z,40.60
2019-05-01T16:05:33.343Z,39.15
2019-05-01T16:08:09.145Z,40.78
2019-05-01T16:10:45.324Z,38.67
2019-05-01T16:13:35.539Z,40.05
2019-05-01T16:16:11.541Z,34.43
2019-05-01T16:18:59.493Z,41.88
2019-05-01T16:21:45.719Z,46.95
2019-05-01T16:24:34.473Z,37.78
2019-05-01T16:27:10.010Z,36.20
2019-05-01T16:38:56.989Z,40.50
2019-05-01T16:41:58.773Z,40.95
2019-05-01T16:44:29.117Z,43.38
2019-05-01T16:47:08.680Z,35.68
2019-05-01T16:49:47.745Z,35.63
2019-05-01T16:55:23.046Z,40.33
2019-05-01T16:58:04.562Z,45.12
2019-05-01T17:04:08.792Z,44.23
2019-05-01T17:06:55.119Z,38.70
2019-05-01T17:09:52.303Z,34.27
2019-05-01T17:12:36.586Z,34.20
2019-05-01T17:15:25.188Z,43.15
2019-05-01T17:18:08.071Z,38.85
2019-05-01T17:20:54.790Z,38.23
2019-05-01T17:23:29.917Z,38.00
2019-05-01T17:26:14.985Z,45.50
2019-05-01T17:29:05.451Z,39.20
2019-05-01T17:31:43.585Z,38.10
2019-05-01T17:34:25.480Z,33.13
2019-05-01T17:36:56.525Z,40.23
2019-05-01T17:39:42.506Z,37.33
2019-05-01T17:45:34.696Z,45.25
2019-05-01T17:48:13.551Z,44.10
2019-05-01T17:50:47.139Z,47.43
2019-05-01T17:53:29.747Z,45.03
2019-05-01T17:56:04.385Z,42.48
2019-05-01T17:58:53.513Z,51.55
2019-05-01T18:01:35.811Z,43.28
2019-05-01T18:04:15.432Z,47.27
2019-05-01T18:06:51.310Z,43.35
2019-05-01T18:09:27.611Z,44.73
2019-05-01T18:12:07.677Z,43.17
2019-05-01T18:14:52.793Z,44.53
2019-05-01T18:17:30.254Z,50.75
2019-05-01T18:20:10.157Z,43.87
2019-05-01T18:23:12.470Z,47.75
2019-05-01T18:26:04.711Z,48.48
2019-05-01T18:29:00.867Z,41.28
2019-05-01T18:31:36.286Z,50.10
2019-05-01T18:34:15.088Z,52.03
2019-05-01T18:36:50.039Z,48.55
2019-05-01T18:42:30.561Z,44.30
2019-05-01T18:45:12.428Z,41.15
2019-05-01T18:47:46.236Z,40.80
2019-05-01T18:52:57.203Z,46.10
2019-05-01T18:55:33.443Z,44.27
2019-05-01T18:58:09.971Z,42.60
2019-05-01T19:00:46.162Z,40.40
2019-05-01T19:03:22.324Z,41.83
2019-05-01T19:05:55.886Z,44.25
2019-05-01T19:08:34.658Z,40.90
2019-05-01T19:11:12.711Z,45.03
2019-05-01T19:13:44.004Z,42.50
2019-05-01T19:16:22.134Z,43.48
2019-05-01T19:18:55.763Z,42.62
2019-05-01T19:21:30.055Z,47.45
2019-05-01T19:24:07.360Z,46.02
2019-05-01T19:26:44.142Z,45.75
2019-05-01T19:29:17.625Z,45.20
2019-05-01T19:31:52.993Z,49.58
2019-05-01T19:34:27.167Z,46.60
2019-05-01T19:37:04.896Z,42.58
2019-05-01T19:39:43.933Z,41.92
2019-05-01T19:42:13.618Z,43.90
2019-05-01T19:47:21.725Z,36.88
2019-05-01T19:49:55.407Z,36.60
2019-05-01T19:55:05.882Z,38.17
2019-05-01T19:57:36.164Z,36.25
2019-05-01T20:02:43.180Z,35.17
2019-05-01T20:05:16.610Z,52.65
2019-05-01T20:07:55.647Z,44.88
2019-05-01T20:10:27.481Z,37.45
2019-05-01T20:13:01.295Z,31.40
2019-05-01T20:18:10.638Z,32.60
2019-05-01T20:20:44.337Z,32.45
2019-05-01T20:23:17.831Z,30.30
2019-05-01T20:25:55.744Z,33.73
2019-05-01T20:28:25.992Z,29.35
2019-05-01T20:30:59.387Z,37.53
2019-05-01T20:33:38.110Z,34.70
2019-05-01T20:36:07.970Z,36.42
2019-05-01T20:38:49.138Z,32.85
2019-05-01T20:41:22.564Z,36.50
2019-05-01T20:43:56.075Z,33.63
2019-05-01T20:46:29.491Z,31.27
2019-05-01T20:49:06.495Z,34.00
2019-05-01T20:51:40.225Z,37.58
2019-05-01T20:54:15.720Z,34.50
2019-05-01T20:56:53.176Z,33.58
2019-05-01T20:59:29.474Z,44.15
2019-05-01T21:02:08.020Z,35.43
2019-05-01T21:04:49.534Z,38.60
2019-05-01T21:07:29.332Z,35.90
2019-05-01T21:10:04.925Z,36.63
2019-05-01T21:12:38.579Z,34.38
2019-05-01T21:15:13.996Z,38.83
2019-05-01T21:17:49.314Z,39.20
2019-05-01T21:20:23.872Z,35.85
2019-05-01T21:23:11.659Z,35.65
2019-05-01T21:25:50.186Z,36.15
2019-05-01T21:28:24.123Z,38.83
2019-05-01T21:30:57.655Z,30.50
2019-05-01T21:33:34.265Z,34.30
2019-05-01T21:36:08.489Z,27.58
2019-05-01T21:38:45.405Z,37.15
2019-05-01T21:41:22.372Z,32.48
2019-05-01T21:43:58.539Z,35.38
2019-05-01T21:46:34.585Z,35.88
2019-05-01T21:49:10.402Z,32.00
2019-05-01T21:51:45.993Z,30.25
2019-05-01T21:54:20.665Z,30.85
2019-05-01T21:56:54.784Z,33.88
2019-05-01T21:59:44.041Z,28.77
2019-05-01T22:02:18.546Z,29.57
2019-05-01T22:04:53.183Z,33.25
2019-05-01T22:07:29.168Z,32.03
2019-05-01T22:10:04.885Z,30.92
2019-05-01T22:12:43.983Z,29.12
2019-05-01T22:15:23.195Z,29.12
2019-05-01T22:18:16.549Z,26.25
2019-05-01T22:20:54.314Z,28.35
2019-05-01T22:23:49.146Z,28.10
2019-05-01T22:26:23.655Z,29.98
2019-05-01T22:32:07.803Z,27.70
2019-05-01T22:37:40.432Z,22.40
2019-05-01T22:40:23.004Z,30.27
2019-05-01T22:42:57.794Z,25.37
2019-05-01T22:48:31.205Z,25.75
2019-05-01T22:51:09.019Z,26.20
2019-05-01T22:53:54.250Z,24.00
2019-05-01T22:56:30.996Z,28.17
2019-05-01T22:59:04.598Z,29.30
2019-05-01T23:01:41.722Z,34.38
2019-05-01T23:04:23.302Z,33.95
2019-05-01T23:07:07.602Z,33.02
2019-05-01T23:09:38.045Z,31.60
2019-05-01T23:12:16.608Z,32.38
2019-05-01T23:15:09.304Z,38.00
2019-05-01T23:18:03.223Z,33.25
2019-05-01T23:20:45.423Z,36.73
2019-05-01T23:23:44.306Z,40.70
2019-05-01T23:26:32.517Z,37.78
2019-05-01T23:29:08.732Z,43.58
2019-05-01T23:31:53.465Z,46.50
2019-05-01T23:34:33.809Z,41.33
2019-05-01T23:37:25.805Z,46.35
2019-05-01T23:40:11.005Z,37.70
2019-05-01T23:45:49.210Z,40.65
2019-05-01T23:48:32.865Z,39.67
2019-05-01T23:51:23.679Z,41.75
2019-05-01T23:54:01.228Z,43.98
2019-05-01T23:56:50.828Z,39.78
2019-05-01T23:59:31.227Z,37.50
